Time;durP1;ratioP1;P1;durP2;ratioP2;P2;SDS_P1;SDS_P2;PMS_P1;PMS_P2;Temp;Humidity;BMP_temperature;BMP_pressure;BME280_temperature;BME280_humidity;BME280_pressure;Samples;Min_cycle;Max_cycle;Signal;HPM_P1;HPM_P2
2022/09/25 00:01:12;;;;;;;14.77;13.20;;;20.40;65.90;;;;;;5005747;28;20198;-47
2022/09/25 00:03:39;;;;;;;14.83;13.43;;;20.40;65.60;;;;;;5005352;28;20204;-47
2022/09/25 00:06:16;;;;;;;14.50;13.00;;;20.40;65.80;;;;;;4998767;28;20557;-49
2022/09/25 00:08:42;;;;;;;15.17;12.37;;;20.40;65.60;;;;;;5007862;28;20453;-47
2022/09/25 00:11:13;;;;;;;13.80;12.40;;;20.40;65.60;;;;;;5007527;28;20490;-48
2022/09/25 00:13:40;;;;;;;14.13;12.63;;;20.40;65.50;;;;;;5005760;28;20281;-48
2022/09/25 00:16:09;;;;;;;14.63;13.03;;;20.40;65.20;;;;;;5008497;28;20495;-48
2022/09/25 00:21:19;;;;;;;14.87;13.37;;;20.30;64.80;;;;;;5000199;28;20460;-49
2022/09/25 00:23:45;;;;;;;14.57;12.77;;;20.30;64.90;;;;;;5016662;28;20559;-47
2022/09/25 00:26:13;;;;;;;14.30;12.70;;;20.30;65.00;;;;;;5007727;28;20190;-48
2022/09/25 00:28:40;;;;;;;16.17;13.07;;;20.30;64.90;;;;;;5008316;28;20948;-48
2022/09/25 00:31:06;;;;;;;14.70;13.30;;;20.30;64.80;;;;;;5006918;28;20459;-49
2022/09/25 00:33:33;;;;;;;16.43;12.87;;;20.30;64.80;;;;;;5007323;28;20444;-50
2022/09/25 00:36:08;;;;;;;14.60;13.20;;;20.20;64.70;;;;;;5011413;28;20437;-48
2022/09/25 00:38:36;;;;;;;14.37;12.97;;;20.20;65.20;;;;;;5007945;28;20480;-47
2022/09/25 00:41:04;;;;;;;13.60;12.30;;;20.10;65.30;;;;;;5010950;28;20460;-48
2022/09/25 00:43:36;;;;;;;17.07;13.87;;;20.10;65.60;;;;;;5010253;28;20808;-47
2022/09/25 00:46:08;;;;;;;14.80;13.30;;;20.00;66.00;;;;;;5007677;28;20540;-48
2022/09/25 00:48:34;;;;;;;14.23;12.83;;;20.00;66.10;;;;;;5011416;28;20914;-49
2022/09/25 00:51:00;;;;;;;15.10;13.57;;;20.00;66.30;;;;;;5008362;28;20444;-48
2022/09/25 00:53:33;;;;;;;14.07;12.63;;;20.00;66.00;;;;;;5009896;28;20534;-48
2022/09/25 00:56:01;;;;;;;12.67;11.40;;;20.00;66.00;;;;;;5011119;28;20437;-48
2022/09/25 00:58:29;;;;;;;13.77;12.47;;;20.00;65.70;;;;;;5006609;28;20484;-47
2022/09/25 01:00:55;;;;;;;12.23;11.13;;;20.00;65.70;;;;;;5006010;28;20448;-50
2022/09/25 01:03:22;;;;;;;13.13;11.80;;;19.90;65.80;;;;;;5005240;28;20658;-48
2022/09/25 01:05:48;;;;;;;13.30;12.10;;;19.90;65.80;;;;;;5010504;28;21177;-50
2022/09/25 01:08:22;;;;;;;14.00;12.30;;;19.80;65.70;;;;;;5010723;28;20451;-48
2022/09/25 01:10:48;;;;;;;12.87;11.67;;;19.80;65.80;;;;;;5010041;28;20578;-47
2022/09/25 01:13:15;;;;;;;12.57;11.40;;;19.80;65.80;;;;;;5006077;28;20811;-48
2022/09/25 01:15:48;;;;;;;14.23;12.83;;;19.70;65.60;;;;;;5010421;28;20445;-48
2022/09/25 01:18:42;;;;;;;14.23;11.70;;;19.70;65.60;;;;;;5010118;28;21224;-48
2022/09/25 01:21:20;;;;;;;13.33;12.13;;;19.70;65.60;;;;;;5005348;28;20457;-49
2022/09/25 01:23:55;;;;;;;13.47;12.10;;;19.60;65.90;;;;;;5008448;28;20491;-47
2022/09/25 01:26:26;;;;;;;14.00;12.60;;;19.50;66.10;;;;;;5009465;28;20464;-47
2022/09/25 01:29:14;;;;;;;12.90;11.70;;;19.50;66.50;;;;;;5009313;28;20453;-48
2022/09/25 01:32:03;;;;;;;14.37;12.93;;;19.40;66.60;;;;;;5010751;28;20503;-47
2022/09/25 01:34:47;;;;;;;13.73;12.37;;;19.40;66.70;;;;;;5008171;28;20452;-49
2022/09/25 01:37:25;;;;;;;14.13;12.83;;;19.40;66.90;;;;;;5008875;28;20449;-48
2022/09/25 01:40:18;;;;;;;14.43;13.00;;;19.30;67.30;;;;;;5010616;28;20484;-47
2022/09/25 01:43:09;;;;;;;13.63;12.37;;;19.30;67.60;;;;;;5007726;28;20467;-47
2022/09/25 01:45:42;;;;;;;15.03;13.67;;;19.40;67.60;;;;;;5006054;28;20448;-47
2022/09/25 01:48:10;;;;;;;14.43;12.23;;;19.30;67.70;;;;;;5009231;28;20532;-48
2022/09/25 01:51:08;;;;;;;14.07;12.57;;;19.30;67.80;;;;;;5007268;28;20444;-47
2022/09/25 01:53:39;;;;;;;13.37;12.00;;;19.20;67.90;;;;;;5006407;28;20487;-48
2022/09/25 01:56:21;;;;;;;13.07;11.77;;;19.20;67.80;;;;;;5008443;28;20437;-47
2022/09/25 01:58:55;;;;;;;15.10;13.60;;;19.20;68.10;;;;;;5011466;28;20571;-47
2022/09/25 02:01:33;;;;;;;13.23;11.93;;;19.20;68.20;;;;;;5010977;28;20451;-48
2022/09/25 02:04:06;;;;;;;13.83;12.53;;;19.20;68.20;;;;;;5011517;28;20471;-47
2022/09/25 02:06:34;;;;;;;14.50;12.97;;;19.20;68.50;;;;;;5020967;28;20940;-47
2022/09/25 02:09:06;;;;;;;13.10;11.80;;;19.20;68.60;;;;;;5011967;28;20487;-49
2022/09/25 02:11:38;;;;;;;11.53;10.33;;;19.20;68.70;;;;;;5007258;28;20943;-47
2022/09/25 02:14:12;;;;;;;12.63;11.33;;;19.20;68.80;;;;;;5007524;28;20441;-48
2022/09/25 02:16:43;;;;;;;11.90;10.77;;;19.20;68.80;;;;;;5010536;28;20860;-48
2022/09/25 02:22:22;;;;;;;10.97;9.97;;;19.30;68.60;;;;;;5007610;28;20690;-48
2022/09/25 02:25:01;;;;;;;11.63;10.30;;;19.20;68.00;;;;;;5008775;28;21848;-51
2022/09/25 02:27:28;;;;;;;10.97;9.97;;;19.20;68.40;;;;;;5009626;28;20475;-48
2022/09/25 02:29:55;;;;;;;11.73;10.53;;;19.30;68.10;;;;;;5011957;28;20453;-52
2022/09/25 02:32:32;;;;;;;10.30;9.30;;;19.40;67.90;;;;;;5008282;28;20453;-48
2022/09/25 02:35:01;;;;;;;13.63;10.20;;;19.40;67.70;;;;;;5011187;28;20483;-51
2022/09/25 02:37:27;;;;;;;10.03;8.87;;;19.50;67.50;;;;;;5010597;28;20936;-48
2022/09/25 02:39:56;;;;;;;11.57;9.23;;;19.50;66.80;;;;;;5009242;28;20523;-49
2022/09/25 02:42:54;;;;;;;14.63;9.20;;;19.50;66.80;;;;;;5006336;28;20209;-47
2022/09/25 02:45:48;;;;;;;11.20;9.80;;;19.60;66.50;;;;;;5002499;28;20444;-49
2022/09/25 02:48:40;;;;;;;10.57;9.53;;;19.60;65.80;;;;;;5007858;28;20479;-51
2022/09/25 02:51:17;;;;;;;10.80;9.80;;;19.60;65.70;;;;;;5009695;28;20516;-51
2022/09/25 02:54:04;;;;;;;12.13;10.93;;;19.60;65.60;;;;;;5010486;28;20445;-49
2022/09/25 02:56:40;;;;;;;11.53;10.33;;;19.60;65.30;;;;;;5008206;28;20820;-50
2022/09/25 02:59:14;;;;;;;11.10;10.00;;;19.60;65.30;;;;;;5005671;28;20488;-49
2022/09/25 03:01:41;;;;;;;12.30;10.33;;;19.60;65.30;;;;;;5007549;28;20506;-48
2022/09/25 03:04:09;;;;;;;12.80;11.57;;;19.50;65.30;;;;;;5010601;28;21283;-51
2022/09/25 03:06:36;;;;;;;11.00;9.90;;;19.30;65.20;;;;;;5007577;28;20441;-52
2022/09/25 03:09:04;;;;;;;11.57;10.37;;;19.20;65.80;;;;;;5006865;28;20523;-52
2022/09/25 03:11:29;;;;;;;11.33;10.23;;;19.20;66.50;;;;;;4994972;28;20449;-49
2022/09/25 03:14:01;;;;;;;11.10;9.70;;;19.30;66.10;;;;;;5009195;28;20444;-52
2022/09/25 03:16:56;;;;;;;12.13;10.73;;;19.30;65.80;;;;;;5008719;28;20198;-51
2022/09/25 03:19:27;;;;;;;14.83;12.10;;;19.40;66.10;;;;;;5002019;28;20562;-49
2022/09/25 03:21:53;;;;;;;13.87;11.43;;;19.40;65.50;;;;;;5006979;28;20453;-51
2022/09/25 03:24:19;;;;;;;12.10;10.60;;;19.20;64.60;;;;;;5003960;28;20500;-51
2022/09/25 03:26:45;;;;;;;11.60;10.50;;;19.20;65.70;;;;;;5010586;28;20437;-47
2022/09/25 03:29:13;;;;;;;12.90;11.60;;;19.30;65.50;;;;;;5003382;28;20572;-52
2022/09/25 03:31:40;;;;;;;10.97;9.87;;;19.00;65.70;;;;;;5008099;28;20445;-50
2022/09/25 03:34:05;;;;;;;11.60;10.50;;;19.10;66.30;;;;;;5006230;28;20510;-51
2022/09/25 03:36:31;;;;;;;12.00;10.80;;;19.20;66.10;;;;;;5004563;28;20452;-47
2022/09/25 03:38:58;;;;;;;12.63;11.33;;;19.20;65.50;;;;;;5004662;28;20256;-50
2022/09/25 03:41:26;;;;;;;11.80;10.30;;;19.30;65.40;;;;;;4999122;28;20440;-48
2022/09/25 03:43:52;;;;;;;12.70;11.47;;;19.40;65.30;;;;;;5007636;28;20444;-49
2022/09/25 03:46:26;;;;;;;12.60;10.73;;;19.40;65.10;;;;;;5010418;28;20916;-51
2022/09/25 03:48:53;;;;;;;10.20;9.30;;;19.40;65.10;;;;;;5005638;28;20932;-47
2022/09/25 03:51:20;;;;;;;12.63;11.37;;;19.30;65.50;;;;;;5008568;28;20437;-52
2022/09/25 03:53:46;;;;;;;10.03;9.03;;;19.40;65.40;;;;;;5007096;28;22372;-49
2022/09/25 03:56:15;;;;;;;9.77;8.87;;;19.40;65.00;;;;;;5009765;28;20456;-48
2022/09/25 03:58:41;;;;;;;11.00;9.90;;;19.40;64.70;;;;;;5007896;28;20496;-50
2022/09/25 04:01:07;;;;;;;10.90;9.53;;;19.40;65.00;;;;;;5004652;28;20827;-52
2022/09/25 04:03:33;;;;;;;11.43;10.33;;;19.40;65.10;;;;;;5006747;28;20284;-47
2022/09/25 04:06:03;;;;;;;10.20;9.30;;;19.50;65.00;;;;;;5005241;28;20987;-47
2022/09/25 04:08:30;;;;;;;11.53;10.43;;;19.50;64.60;;;;;;5006570;28;20444;-52
2022/09/25 04:11:00;;;;;;;11.20;9.33;;;19.50;64.30;;;;;;5006515;28;20469;-47
2022/09/25 04:13:30;;;;;;;11.23;10.13;;;19.60;64.30;;;;;;5007484;28;20472;-47
2022/09/25 04:15:57;;;;;;;10.43;9.47;;;19.60;64.00;;;;;;5010079;28;20453;-49
2022/09/25 04:18:24;;;;;;;10.70;9.73;;;19.60;63.50;;;;;;5014638;28;20477;-48
2022/09/25 04:20:50;;;;;;;10.70;9.70;;;19.60;63.50;;;;;;5008512;28;20454;-48
2022/09/25 04:23:16;;;;;;;10.77;9.67;;;19.50;63.60;;;;;;5010009;28;20485;-50
2022/09/25 04:25:41;;;;;;;9.80;8.50;;;19.50;63.90;;;;;;5008683;28;20357;-47
2022/09/25 04:28:08;;;;;;;11.73;10.50;;;19.40;64.30;;;;;;5008383;28;20531;-49
2022/09/25 04:30:34;;;;;;;11.43;10.33;;;19.40;64.60;;;;;;5005313;28;20309;-48
2022/09/25 04:35:44;;;;;;;8.83;7.93;;;19.40;64.90;;;;;;5008629;28;20236;-47
2022/09/25 04:38:10;;;;;;;10.63;9.50;;;19.40;65.10;;;;;;5008625;28;20918;-51
2022/09/25 04:40:36;;;;;;;10.80;9.80;;;19.30;64.90;;;;;;5007610;28;20217;-51
2022/09/25 04:43:04;;;;;;;11.27;10.17;;;19.10;64.90;;;;;;5008203;28;20194;-50
2022/09/25 04:45:33;;;;;;;12.30;10.03;;;19.00;65.60;;;;;;5004081;28;20516;-52
2022/09/25 04:47:59;;;;;;;11.00;9.90;;;18.80;66.40;;;;;;5005752;28;20499;-52
2022/09/25 04:50:26;;;;;;;12.57;11.10;;;18.90;66.60;;;;;;5004719;28;20873;-51
2022/09/25 04:52:52;;;;;;;12.60;10.20;;;18.80;66.60;;;;;;5003013;28;20464;-50
2022/09/25 04:55:23;;;;;;;11.50;10.40;;;18.70;67.00;;;;;;5009158;28;20808;-51
2022/09/25 04:57:59;;;;;;;12.10;11.00;;;18.70;67.20;;;;;;5005258;28;20187;-50
2022/09/25 05:00:27;;;;;;;11.63;10.47;;;18.80;67.40;;;;;;5005452;28;20444;-48
2022/09/25 05:02:53;;;;;;;12.43;11.17;;;18.80;67.30;;;;;;5006478;28;20441;-51
2022/09/25 05:05:19;;;;;;;11.53;10.43;;;18.90;67.10;;;;;;5008724;28;20453;-50
2022/09/25 05:07:53;;;;;;;11.53;10.27;;;19.00;67.10;;;;;;5005368;28;20444;-51
2022/09/25 05:10:19;;;;;;;12.47;11.27;;;18.80;66.70;;;;;;5008955;28;20194;-52
2022/09/25 05:12:46;;;;;;;12.43;11.13;;;18.70;67.60;;;;;;5007319;28;20536;-50
2022/09/25 05:15:12;;;;;;;14.20;10.70;;;18.60;67.80;;;;;;5008980;28;20448;-48
2022/09/25 05:17:37;;;;;;;12.30;11.00;;;18.70;68.00;;;;;;5006490;28;20445;-52
2022/09/25 05:20:03;;;;;;;11.50;10.30;;;18.70;67.90;;;;;;5009666;28;20561;-50
2022/09/25 05:22:29;;;;;;;14.10;11.40;;;18.70;68.90;;;;;;5008059;28;20697;-48
2022/09/25 05:24:54;;;;;;;10.30;9.20;;;18.70;68.00;;;;;;5010946;28;20273;-48
2022/09/25 05:27:21;;;;;;;11.00;9.90;;;18.80;68.00;;;;;;5008434;28;20189;-47
2022/09/25 05:29:47;;;;;;;11.33;10.13;;;18.80;67.90;;;;;;5008170;28;20217;-48
2022/09/25 05:32:12;;;;;;;11.73;10.60;;;18.70;68.20;;;;;;5002336;28;20804;-50
2022/09/25 05:34:38;;;;;;;12.70;9.20;;;18.70;68.00;;;;;;5005261;28;20198;-51
2022/09/25 05:37:03;;;;;;;15.00;8.20;;;18.80;68.00;;;;;;5009022;28;20197;-47
2022/09/25 05:39:29;;;;;;;9.60;8.60;;;18.80;68.40;;;;;;5006456;28;20218;-49
2022/09/25 05:41:54;;;;;;;10.17;9.17;;;18.90;68.20;;;;;;5007136;28;20557;-50
2022/09/25 05:44:20;;;;;;;8.77;7.97;;;18.90;68.60;;;;;;5009804;28;20248;-52
2022/09/25 05:46:46;;;;;;;9.27;8.23;;;19.00;67.70;;;;;;5010524;28;20244;-47
2022/09/25 05:49:11;;;;;;;8.70;7.90;;;19.10;67.20;;;;;;5011006;28;20190;-49
2022/09/25 05:51:37;;;;;;;14.63;7.70;;;19.10;66.90;;;;;;5002501;28;20715;-47
2022/09/25 05:54:02;;;;;;;8.40;7.60;;;19.20;66.80;;;;;;5007999;28;20202;-48
2022/09/25 05:56:28;;;;;;;9.73;8.60;;;19.20;66.50;;;;;;5008568;28;20665;-47
2022/09/25 05:58:57;;;;;;;10.73;9.63;;;19.30;66.10;;;;;;5008466;28;20233;-49
2022/09/25 06:01:22;;;;;;;9.40;8.50;;;19.40;65.50;;;;;;5004538;28;20661;-48
2022/09/25 06:03:48;;;;;;;11.20;10.07;;;19.40;65.30;;;;;;5006395;28;20448;-48
2022/09/25 06:06:13;;;;;;;9.43;8.53;;;19.40;65.40;;;;;;5009383;28;20194;-49
2022/09/25 06:08:39;;;;;;;9.27;8.37;;;19.40;65.50;;;;;;5012561;28;20198;-47
2022/09/25 06:11:06;;;;;;;9.90;9.00;;;19.50;65.60;;;;;;5007921;28;20288;-48
2022/09/25 06:13:33;;;;;;;9.17;8.37;;;19.50;65.40;;;;;;5017812;28;20318;-47
2022/09/25 06:15:59;;;;;;;9.40;8.50;;;19.50;65.10;;;;;;5008588;28;20792;-49
2022/09/25 06:18:25;;;;;;;9.73;8.83;;;19.50;65.20;;;;;;5009977;28;20630;-47
2022/09/25 06:20:57;;;;;;;10.40;9.40;;;19.50;65.20;;;;;;5006594;28;20452;-50
2022/09/25 06:23:23;;;;;;;8.80;7.97;;;19.60;65.30;;;;;;5010079;28;20623;-49
2022/09/25 06:25:48;;;;;;;9.00;8.20;;;19.60;65.20;;;;;;5011435;28;20535;-51
2022/09/25 06:28:14;;;;;;;8.70;7.90;;;19.60;64.90;;;;;;5009076;28;20247;-48
2022/09/25 06:30:40;;;;;;;9.53;7.70;;;19.70;64.70;;;;;;5006127;28;20673;-47
2022/09/25 06:33:11;;;;;;;9.33;8.37;;;19.70;64.40;;;;;;5006369;28;20220;-47
2022/09/25 06:35:47;;;;;;;9.63;8.73;;;19.70;64.30;;;;;;5007755;28;20224;-49
2022/09/25 06:38:14;;;;;;;8.50;7.70;;;19.80;64.30;;;;;;5010030;28;20510;-49
2022/09/25 06:40:41;;;;;;;7.93;7.20;;;19.80;64.10;;;;;;5012123;28;20492;-48
2022/09/25 06:43:10;;;;;;;8.50;7.80;;;19.80;64.00;;;;;;5011320;28;20520;-47
2022/09/25 06:45:37;;;;;;;9.60;8.60;;;19.80;64.00;;;;;;5012453;28;20547;-47
2022/09/25 06:48:12;;;;;;;8.40;7.70;;;19.80;63.90;;;;;;5020647;28;20492;-47
2022/09/25 06:51:07;;;;;;;8.70;8.00;;;19.60;64.00;;;;;;5010515;28;20440;-47
2022/09/25 06:53:33;;;;;;;8.60;7.90;;;19.60;64.50;;;;;;4998324;28;20461;-49
2022/09/25 06:55:59;;;;;;;8.47;7.67;;;19.60;64.70;;;;;;5012452;28;20783;-47
2022/09/25 06:58:25;;;;;;;8.53;7.83;;;19.70;64.60;;;;;;5010656;28;20237;-48
2022/09/25 07:00:54;;;;;;;7.67;7.03;;;19.80;64.50;;;;;;5010775;28;20434;-48
2022/09/25 07:06:06;;;;;;;6.40;5.80;;;19.80;64.30;;;;;;5011779;28;20459;-51
2022/09/25 07:08:32;;;;;;;7.57;6.87;;;19.80;64.00;;;;;;5011596;28;20519;-48
2022/09/25 07:10:58;;;;;;;6.30;5.80;;;19.90;63.80;;;;;;5010164;28;20559;-47
2022/09/25 07:13:27;;;;;;;7.53;6.83;;;19.80;63.50;;;;;;5009957;28;20220;-47
2022/09/25 07:15:55;;;;;;;7.47;6.87;;;19.80;63.10;;;;;;5010393;28;20437;-48
2022/09/25 07:18:22;;;;;;;6.20;5.70;;;19.80;63.50;;;;;;5006964;28;20488;-48
2022/09/25 07:20:48;;;;;;;6.80;6.20;;;19.80;63.80;;;;;;5010672;28;20503;-47
2022/09/25 07:23:16;;;;;;;6.40;5.80;;;19.70;64.10;;;;;;5012506;28;20564;-47
2022/09/25 07:25:45;;;;;;;7.27;6.57;;;19.70;64.20;;;;;;5011054;28;20464;-48
2022/09/25 07:28:13;;;;;;;7.60;6.90;;;19.80;64.20;;;;;;5010925;28;20448;-47
2022/09/25 07:30:39;;;;;;;6.93;6.33;;;19.80;63.80;;;;;;5009791;28;20564;-50
2022/09/25 07:33:05;;;;;;;6.17;5.67;;;19.80;63.90;;;;;;5012408;28;20429;-46
2022/09/25 07:35:33;;;;;;;7.17;6.57;;;19.80;64.10;;;;;;5011823;28;20443;-47
2022/09/25 07:37:59;;;;;;;7.53;6.93;;;19.80;64.00;;;;;;5009417;28;20202;-48
2022/09/25 07:40:28;;;;;;;6.10;5.50;;;19.70;64.40;;;;;;5011038;28;20455;-47
2022/09/25 07:43:01;;;;;;;6.50;5.87;;;19.60;65.00;;;;;;5009459;28;20213;-48
2022/09/25 07:45:27;;;;;;;5.83;5.33;;;19.70;64.70;;;;;;5011554;28;20432;-48
2022/09/25 07:48:01;;;;;;;6.00;5.50;;;19.80;64.30;;;;;;5008742;28;20449;-47
2022/09/25 07:50:30;;;;;;;7.10;6.50;;;19.90;63.90;;;;;;5006003;28;20441;-52
2022/09/25 07:52:57;;;;;;;6.67;6.07;;;19.90;63.40;;;;;;5011287;28;20459;-51
2022/09/25 07:55:23;;;;;;;7.10;6.50;;;19.90;63.50;;;;;;5006841;28;20948;-48
2022/09/25 07:57:50;;;;;;;6.40;5.90;;;19.90;63.70;;;;;;5010523;28;20807;-51
2022/09/25 08:00:16;;;;;;;7.50;6.80;;;19.90;63.70;;;;;;5011909;28;20444;-52
2022/09/25 08:02:42;;;;;;;7.27;6.57;;;20.00;63.60;;;;;;5010266;28;20448;-50
2022/09/25 08:05:10;;;;;;;7.60;6.70;;;20.00;63.80;;;;;;5011734;28;20421;-52
2022/09/25 08:07:35;;;;;;;7.83;7.17;;;20.00;63.80;;;;;;5009686;28;20267;-52
2022/09/25 08:10:01;;;;;;;8.20;7.40;;;20.10;63.70;;;;;;5010046;28;20519;-52
2022/09/25 08:12:27;;;;;;;8.00;7.30;;;20.10;63.30;;;;;;5009295;28;20651;-52
2022/09/25 08:14:53;;;;;;;7.50;6.90;;;20.10;63.20;;;;;;5011893;28;20206;-49
2022/09/25 08:17:21;;;;;;;7.77;7.00;;;20.10;63.20;;;;;;5008541;28;20190;-51
2022/09/25 08:19:46;;;;;;;7.90;7.20;;;20.10;63.20;;;;;;5010130;28;20236;-47
2022/09/25 08:22:12;;;;;;;9.10;8.30;;;20.10;63.10;;;;;;5009790;28;20445;-52
2022/09/25 08:24:38;;;;;;;8.17;7.37;;;20.10;63.00;;;;;;5009232;28;20518;-51
2022/09/25 08:27:04;;;;;;;9.07;8.13;;;20.10;62.80;;;;;;5009167;28;20498;-52
2022/09/25 08:29:30;;;;;;;9.77;8.80;;;20.00;62.80;;;;;;5010481;28;20190;-47
2022/09/25 08:31:56;;;;;;;9.30;8.40;;;19.90;63.00;;;;;;5010578;28;20429;-51
2022/09/25 08:34:22;;;;;;;8.33;7.53;;;19.80;62.80;;;;;;5010396;28;20216;-50
2022/09/25 08:36:51;;;;;;;9.50;8.60;;;19.90;63.00;;;;;;5009267;28;20453;-48
2022/09/25 08:39:17;;;;;;;9.10;8.30;;;19.90;63.00;;;;;;5009307;28;20531;-49
2022/09/25 08:41:56;;;;;;;7.83;7.13;;;19.90;63.00;;;;;;5010863;28;20784;-48
2022/09/25 08:44:25;;;;;;;8.63;7.83;;;20.00;63.00;;;;;;5010557;28;20205;-51
2022/09/25 08:50:11;;;;;;;8.60;7.80;;;20.10;62.90;;;;;;4997253;28;20464;-47
2022/09/25 08:52:41;;;;;;;8.10;7.30;;;20.10;62.60;;;;;;5013774;28;20436;-52
2022/09/25 08:58:33;;;;;;;9.50;8.13;;;20.20;62.60;;;;;;5011142;28;20482;-51
2022/09/25 09:01:07;;;;;;;10.20;8.47;;;20.30;62.50;;;;;;5013528;28;20823;-47
2022/09/25 09:03:44;;;;;;;9.67;8.70;;;20.40;62.30;;;;;;5013840;28;20532;-48
2022/09/25 09:06:14;;;;;;;9.77;8.60;;;20.30;62.50;;;;;;5012306;28;20428;-48
2022/09/25 09:08:42;;;;;;;10.30;8.90;;;20.30;62.50;;;;;;5013160;28;20498;-49
2022/09/25 09:11:29;;;;;;;9.33;8.43;;;20.20;63.00;;;;;;5011363;28;20445;-48
2022/09/25 09:14:05;;;;;;;9.70;8.90;;;20.10;62.80;;;;;;5011753;28;20483;-46
2022/09/25 09:17:06;;;;;;;9.00;8.10;;;20.00;63.40;;;;;;5008846;28;20456;-49
2022/09/25 09:19:32;;;;;;;10.33;9.43;;;20.20;63.30;;;;;;5004152;28;20519;-47
2022/09/25 09:22:12;;;;;;;11.73;9.83;;;20.30;63.40;;;;;;5005519;28;20834;-47
2022/09/25 09:25:08;;;;;;;9.27;8.47;;;20.40;62.30;;;;;;5009249;28;20228;-47
2022/09/25 09:28:03;;;;;;;11.40;10.20;;;20.50;61.70;;;;;;5013030;28;20528;-47
2022/09/25 09:30:55;;;;;;;9.53;8.53;;;20.60;61.40;;;;;;5012151;28;20429;-49
2022/09/25 09:33:44;;;;;;;7.23;6.53;;;20.70;61.70;;;;;;5018699;28;20542;-47
2022/09/25 09:36:18;;;;;;;10.00;9.07;;;20.60;61.00;;;;;;5010330;28;20440;-48
2022/09/25 09:38:55;;;;;;;8.60;7.83;;;20.70;61.20;;;;;;5006940;28;20900;-47
2022/09/25 09:41:49;;;;;;;9.77;8.83;;;20.80;60.90;;;;;;5010923;28;20445;-47
2022/09/25 09:44:33;;;;;;;9.20;8.40;;;20.80;60.80;;;;;;5009745;28;20795;-47
2022/09/25 09:47:05;;;;;;;10.13;9.23;;;20.80;60.40;;;;;;5002692;28;20452;-47
2022/09/25 09:50:00;;;;;;;11.50;10.33;;;20.90;60.40;;;;;;5003803;28;20521;-48
2022/09/25 09:52:35;;;;;;;9.97;9.00;;;21.00;60.20;;;;;;5006306;28;20468;-47
2022/09/25 09:55:19;;;;;;;9.70;8.70;;;20.40;60.70;;;;;;5004678;28;20448;-51
2022/09/25 09:57:51;;;;;;;10.03;9.13;;;20.50;61.20;;;;;;5007206;28;20488;-47
2022/09/25 10:00:19;;;;;;;11.67;9.90;;;20.70;60.80;;;;;;5006218;28;20572;-48
2022/09/25 10:02:49;;;;;;;9.30;8.40;;;20.80;60.60;;;;;;5006059;28;20539;-47
2022/09/25 10:05:19;;;;;;;9.40;8.43;;;20.90;59.90;;;;;;5007556;28;20440;-48
2022/09/25 10:07:47;;;;;;;10.37;9.37;;;20.80;59.40;;;;;;5010970;28;20944;-50
2022/09/25 10:10:17;;;;;;;10.77;9.67;;;20.80;59.50;;;;;;5009592;28;20799;-48
2022/09/25 10:12:49;;;;;;;11.07;9.73;;;20.80;59.40;;;;;;5001963;28;20935;-47
2022/09/25 10:15:38;;;;;;;10.20;9.20;;;20.70;59.70;;;;;;5011687;28;20448;-47
2022/09/25 10:18:05;;;;;;;11.70;9.03;;;20.80;59.50;;;;;;5005262;28;20551;-48
2022/09/25 10:20:56;;;;;;;9.37;8.47;;;20.70;59.90;;;;;;5006210;28;20452;-47
2022/09/25 10:23:47;;;;;;;10.03;8.47;;;20.70;59.80;;;;;;5015155;28;20471;-47
2022/09/25 10:26:34;;;;;;;9.30;8.50;;;20.60;59.70;;;;;;5011012;28;20499;-48
2022/09/25 10:29:24;;;;;;;9.17;8.27;;;20.60;59.60;;;;;;5009851;28;20817;-50
2022/09/25 10:31:58;;;;;;;10.90;9.80;;;20.60;59.30;;;;;;5008647;28;20511;-48
2022/09/25 10:34:27;;;;;;;9.43;8.60;;;20.80;59.50;;;;;;5005462;28;20448;-49
2022/09/25 10:36:53;;;;;;;10.77;9.77;;;20.80;59.20;;;;;;4999077;28;20475;-49
2022/09/25 10:39:29;;;;;;;8.87;7.97;;;20.80;59.30;;;;;;5011989;28;20484;-50
2022/09/25 10:41:57;;;;;;;11.30;9.47;;;20.90;59.50;;;;;;5005972;28;20942;-48
2022/09/25 10:44:33;;;;;;;11.03;10.00;;;20.90;59.30;;;;;;5012088;28;20444;-49
2022/09/25 10:50:22;;;;;;;12.77;11.47;;;20.90;58.70;;;;;;5009246;28;20550;-48
2022/09/25 10:52:57;;;;;;;13.57;12.00;;;21.10;58.90;;;;;;5010058;28;20488;-47
2022/09/25 10:55:29;;;;;;;11.90;10.70;;;21.10;58.90;;;;;;5007651;28;20460;-48
2022/09/25 10:58:20;;;;;;;10.03;8.10;;;21.10;59.00;;;;;;5010096;28;20928;-48
2022/09/25 11:00:45;;;;;;;8.67;7.87;;;21.20;58.70;;;;;;5003799;28;20471;-47
2022/09/25 11:03:31;;;;;;;12.20;11.00;;;21.30;58.70;;;;;;5010267;28;21001;-48
2022/09/25 11:06:19;;;;;;;12.30;11.00;;;21.30;58.20;;;;;;5007084;28;20200;-50
2022/09/25 11:08:48;;;;;;;12.13;10.93;;;21.30;57.70;;;;;;5007607;28;20511;-47
2022/09/25 11:11:20;;;;;;;11.73;10.63;;;21.30;58.00;;;;;;5004484;28;20447;-47
2022/09/25 11:13:54;;;;;;;12.10;10.40;;;21.30;58.20;;;;;;5015945;28;20434;-50
2022/09/25 11:16:20;;;;;;;12.90;11.60;;;21.20;58.00;;;;;;5008372;28;20437;-49
2022/09/25 11:18:49;;;;;;;12.23;11.03;;;21.30;58.00;;;;;;5009855;28;20546;-47
2022/09/25 11:21:39;;;;;;;13.73;11.73;;;21.30;57.50;;;;;;5009258;28;20473;-49
2022/09/25 11:24:18;;;;;;;13.40;11.13;;;21.40;58.50;;;;;;4952024;28;20526;-47
2022/09/25 11:27:06;;;;;;;13.63;11.77;;;21.50;58.00;;;;;;5009194;28;20455;-48
2022/09/25 11:29:42;;;;;;;12.87;10.80;;;21.40;58.00;;;;;;5003215;28;20850;-47
2022/09/25 11:32:20;;;;;;;11.50;10.40;;;21.20;57.90;;;;;;5010242;28;20448;-47
2022/09/25 11:34:54;;;;;;;13.53;12.23;;;21.10;57.70;;;;;;5007625;28;20484;-47
2022/09/25 11:37:38;;;;;;;13.13;11.57;;;21.00;57.50;;;;;;5005912;28;20455;-48
2022/09/25 11:43:15;;;;;;;12.23;11.00;;;20.90;58.20;;;;;;5006082;28;20507;-47
2022/09/25 11:45:50;;;;;;;13.10;11.80;;;21.00;58.20;;;;;;5009204;28;20448;-47
2022/09/25 11:48:33;;;;;;;12.90;11.70;;;20.90;58.40;;;;;;5009792;28;20865;-48
2022/09/25 11:51:08;;;;;;;14.10;12.70;;;20.90;58.20;;;;;;5006279;28;20995;-48
2022/09/25 11:53:45;;;;;;;13.83;11.80;;;20.90;58.40;;;;;;5011465;28;20796;-47
2022/09/25 11:56:16;;;;;;;13.10;11.70;;;21.00;58.50;;;;;;5006064;28;20464;-47
2022/09/25 11:59:06;;;;;;;14.67;13.27;;;21.10;58.60;;;;;;5006003;28;20484;-47
2022/09/25 12:01:40;;;;;;;15.70;13.37;;;21.10;58.80;;;;;;5006200;28;20860;-48
2022/09/25 12:04:14;;;;;;;14.63;13.10;;;21.10;58.90;;;;;;5007511;28;20445;-49
2022/09/25 12:07:05;;;;;;;14.97;13.37;;;21.10;59.10;;;;;;5007927;28;20449;-48
2022/09/25 12:09:55;;;;;;;14.40;12.87;;;21.10;59.30;;;;;;5001505;28;20471;-49
2022/09/25 12:12:40;;;;;;;16.90;15.17;;;21.10;58.90;;;;;;5004369;28;20555;-51
2022/09/25 12:15:27;;;;;;;12.43;11.20;;;21.10;58.70;;;;;;5012633;28;20899;-49
2022/09/25 12:18:39;;;;;;;15.63;13.60;;;21.20;58.50;;;;;;5010225;28;20535;-48
2022/09/25 12:21:13;;;;;;;15.60;14.00;;;21.30;58.20;;;;;;5008325;28;20807;-49
2022/09/25 12:24:02;;;;;;;14.90;13.40;;;21.30;58.00;;;;;;5011496;28;20463;-45
2022/09/25 12:26:51;;;;;;;20.43;16.17;;;21.40;57.90;;;;;;5010710;28;20943;-47
2022/09/25 12:29:38;;;;;;;16.17;14.43;;;21.40;57.10;;;;;;5012026;28;20453;-50
2022/09/25 12:32:40;;;;;;;15.43;13.83;;;21.40;56.70;;;;;;5006652;28;20453;-45
2022/09/25 12:35:21;;;;;;;14.50;13.00;;;21.40;56.60;;;;;;5016285;28;20451;-45
2022/09/25 12:37:53;;;;;;;14.67;13.27;;;21.50;56.50;;;;;;5011736;28;20456;-47
2022/09/25 12:40:27;;;;;;;15.87;14.30;;;21.50;56.60;;;;;;5007143;28;20456;-49
2022/09/25 12:43:32;;;;;;;16.47;13.80;;;21.50;56.60;;;;;;5009110;28;20460;-46
2022/09/25 12:46:09;;;;;;;15.30;13.90;;;21.50;56.60;;;;;;4999061;28;20460;-49
2022/09/25 12:49:07;;;;;;;18.50;14.17;;;21.50;56.90;;;;;;5009817;28;20458;-46
2022/09/25 12:51:39;;;;;;;16.07;14.50;;;21.40;56.70;;;;;;4955510;28;20546;-48
2022/09/25 12:54:16;;;;;;;16.03;13.90;;;21.50;56.60;;;;;;5005405;28;20480;-50
2022/09/25 12:57:08;;;;;;;16.07;14.37;;;21.50;56.90;;;;;;5005456;28;20498;-49
2022/09/25 12:59:41;;;;;;;16.57;14.77;;;21.20;58.90;;;;;;4998464;28;20543;-48
2022/09/25 13:02:28;;;;;;;15.60;14.10;;;21.20;60.20;;;;;;5007253;28;20460;-50
2022/09/25 13:05:12;;;;;;;17.13;12.90;;;21.10;59.60;;;;;;4995616;28;20502;-45
2022/09/25 13:08:11;;;;;;;16.83;13.40;;;21.20;59.50;;;;;;5005871;28;20459;-49
2022/09/25 13:10:44;;;;;;;15.03;13.63;;;21.30;58.90;;;;;;5007330;28;21306;-47
2022/09/25 13:13:18;;;;;;;13.80;12.47;;;21.30;59.20;;;;;;5005285;28;20457;-45
2022/09/25 13:15:49;;;;;;;12.27;10.80;;;21.20;59.50;;;;;;5007061;28;20473;-45
2022/09/25 13:18:19;;;;;;;11.70;10.50;;;21.30;59.60;;;;;;5012564;28;20537;-46
2022/09/25 13:20:48;;;;;;;12.37;11.37;;;21.30;58.70;;;;;;5009670;28;20837;-47
2022/09/25 13:23:20;;;;;;;11.37;10.17;;;21.30;58.80;;;;;;5001092;28;20507;-46
2022/09/25 13:25:47;;;;;;;10.50;9.50;;;21.30;58.60;;;;;;5011471;28;20448;-46
2022/09/25 13:28:22;;;;;;;8.50;7.70;;;21.20;58.50;;;;;;5012172;28;20999;-48